Stephens City, Virginia
Current Conditions -  °F | °C
As of 2:15 AM on Sunday 26 Oct 2014 (Local Time) from KOKV Reporting Station
Clear Clear  
Wind Chill: 64°   Ceiling: Unl
Heat Index: 64°   Visibility: 10mi
Dew Point: 34°   Wind: 17mph
Humidity: 32%   Direction: 290°WNW
Pressure: 29.71"   Gusts: 26mph
Location:  39.08°N, 78.22°W
Report Text: KOKV 260615Z AUTO 29015G23KT 10SM CLR 18/01 A2971 RMK AO2
Loading
Personal Weather Stations






























Interactive Weather Map
Tropical Storm Tracking
New forecast layout! Learn more

10-Day Weather Forecast

Advertisements
Track Severe Weather on mobile